SVA561 OMDB-OERK
Flight info
| Callsign | SVA561 |
|---|---|
| Flight time | 1h 28m |
| Altitude | 30000 |
| Route | SENPA N571 ALPOB L768 ULADA T136 OTISU N112 GETOT Q212 MEMGO |
| Aircraft | B77W/H-SDE1E2E3FGHIJ2J3J4J5M1RWXY/LB1D1 |
Departure
| Time | 2026-04-23 10:09 |
|---|---|
| Airport | Dubai International Airport (OMDB) |
Arrival
| Time | 2026-04-23 11:38 |
|---|---|
| Airport | King Khalid International Airport (OERK) |
| Time | Latitude | Longitude | Altitude | Speed | Heading |
|---|---|---|---|---|---|
| 2026-04-23 09:24 | 25.24931 | 55.36230 | 16 ft | 0 kts | 211° |
| 2026-04-23 09:29 | 25.24931 | 55.36231 | 16 ft | 0 kts | 211° |
| 2026-04-23 09:31 | 25.24932 | 55.36231 | 16 ft | 0 kts | 211° |
| 2026-04-23 09:52 | 25.24953 | 55.36245 | 16 ft | 4 kts | 210° |
| 2026-04-23 09:52 | 25.24976 | 55.36258 | 12 ft | 3 kts | 201° |
| 2026-04-23 09:52 | 25.24993 | 55.36263 | 17 ft | 2 kts | 176° |
| 2026-04-23 09:52 | 25.25004 | 55.36260 | 16 ft | 2 kts | 144° |
| 2026-04-23 09:53 | 25.25013 | 55.36252 | 15 ft | 2 kts | 129° |
| 2026-04-23 09:53 | 25.25019 | 55.36243 | 16 ft | 2 kts | 124° |
| 2026-04-23 09:53 | 25.25025 | 55.36233 | 13 ft | 1 kts | 123° |
| 2026-04-23 09:53 | 25.25025 | 55.36232 | 14 ft | 0 kts | 123° |
| 2026-04-23 09:59 | 25.25023 | 55.36236 | 14 ft | 6 kts | 123° |
| 2026-04-23 09:59 | 25.24990 | 55.36313 | 14 ft | 12 kts | 105° |
| 2026-04-23 09:59 | 25.24980 | 55.36405 | 14 ft | 12 kts | 92° |
| 2026-04-23 10:00 | 25.24972 | 55.36498 | 14 ft | 12 kts | 102° |
| 2026-04-23 10:00 | 25.24935 | 55.36584 | 14 ft | 12 kts | 118° |
| 2026-04-23 10:00 | 25.24894 | 55.36668 | 14 ft | 13 kts | 116° |
| 2026-04-23 10:00 | 25.24866 | 55.36761 | 14 ft | 13 kts | 103° |
| 2026-04-23 10:01 | 25.24843 | 55.36854 | 12 ft | 13 kts | 114° |
| 2026-04-23 10:01 | 25.24802 | 55.36941 | 14 ft | 13 kts | 116° |
| 2026-04-23 10:01 | 25.24757 | 55.37026 | 14 ft | 13 kts | 122° |
| 2026-04-23 10:01 | 25.24709 | 55.37110 | 14 ft | 13 kts | 122° |
| 2026-04-23 10:02 | 25.24665 | 55.37188 | 14 ft | 10 kts | 122° |
| 2026-04-23 10:02 | 25.24625 | 55.37261 | 14 ft | 14 kts | 122° |
| 2026-04-23 10:02 | 25.24571 | 55.37356 | 15 ft | 15 kts | 122° |
| 2026-04-23 10:02 | 25.24519 | 55.37453 | 15 ft | 15 kts | 120° |
| 2026-04-23 10:03 | 25.24459 | 55.37563 | 15 ft | 19 kts | 122° |
| 2026-04-23 10:03 | 25.24398 | 55.37672 | 16 ft | 12 kts | 121° |
| 2026-04-23 10:03 | 25.24373 | 55.37719 | 16 ft | 2 kts | 121° |
| 2026-04-23 10:03 | 25.24370 | 55.37723 | 16 ft | 1 kts | 121° |
| 2026-04-23 10:04 | 25.24346 | 55.37797 | 16 ft | 14 kts | 85° |
| 2026-04-23 10:04 | 25.24358 | 55.37827 | 16 ft | 0 kts | 52° |
| 2026-04-23 10:06 | 25.24376 | 55.37847 | 14 ft | 13 kts | 42° |
| 2026-04-23 10:06 | 25.24488 | 55.37930 | 16 ft | 20 kts | 33° |
| 2026-04-23 10:07 | 25.24603 | 55.38020 | 16 ft | 19 kts | 33° |
| 2026-04-23 10:07 | 25.24692 | 55.38082 | 16 ft | 15 kts | 32° |
| 2026-04-23 10:07 | 25.24782 | 55.38069 | 16 ft | 13 kts | 304° |
| 2026-04-23 10:07 | 25.24785 | 55.38064 | 16 ft | 0 kts | 303° |
| 2026-04-23 10:09 | 25.24840 | 55.37970 | 16 ft | 50 kts | 301° |
| 2026-04-23 10:09 | 25.25195 | 55.37327 | 14 ft | 144 kts | 302° |
| 2026-04-23 10:09 | 25.25850 | 55.36129 | 112 ft | 209 kts | 302° |
| 2026-04-23 10:09 | 25.26611 | 55.34733 | 955 ft | 213 kts | 304° |
| 2026-04-23 10:10 | 25.27377 | 55.33320 | 1843 ft | 215 kts | 302° |
| 2026-04-23 10:10 | 25.28140 | 55.31874 | 2595 ft | 222 kts | 301° |
| 2026-04-23 10:10 | 25.29002 | 55.30334 | 2902 ft | 251 kts | 302° |
| 2026-04-23 10:10 | 25.29770 | 55.28527 | 3264 ft | 270 kts | 278° |
| 2026-04-23 10:11 | 25.29886 | 55.26475 | 3889 ft | 267 kts | 270° |
| 2026-04-23 10:11 | 25.29990 | 55.24405 | 4003 ft | 274 kts | 274° |
| 2026-04-23 10:11 | 25.30133 | 55.22277 | 4126 ft | 279 kts | 275° |
| 2026-04-23 10:11 | 25.30294 | 55.20176 | 5019 ft | 275 kts | 273° |
| 2026-04-23 10:12 | 25.30440 | 55.18092 | 6100 ft | 271 kts | 269° |
| 2026-04-23 10:12 | 25.30357 | 55.16025 | 7001 ft | 270 kts | 263° |
| 2026-04-23 10:12 | 25.30172 | 55.13955 | 7854 ft | 272 kts | 262° |
| 2026-04-23 10:12 | 25.29977 | 55.11859 | 8692 ft | 275 kts | 263° |
| 2026-04-23 10:13 | 25.29789 | 55.09741 | 9565 ft | 278 kts | 263° |
| 2026-04-23 10:13 | 25.29609 | 55.07608 | 10347 ft | 282 kts | 263° |
| 2026-04-23 10:13 | 25.29425 | 55.05365 | 10704 ft | 307 kts | 263° |
| 2026-04-23 10:13 | 25.29228 | 55.02907 | 10914 ft | 335 kts | 263° |
| 2026-04-23 10:14 | 25.29021 | 55.00257 | 11377 ft | 353 kts | 263° |
| 2026-04-23 10:14 | 25.28810 | 54.97519 | 12162 ft | 362 kts | 263° |
| 2026-04-23 10:14 | 25.28596 | 54.94731 | 13152 ft | 366 kts | 263° |
| 2026-04-23 10:14 | 25.28471 | 54.91902 | 14106 ft | 371 kts | 265° |
| 2026-04-23 10:15 | 25.28410 | 54.89043 | 15032 ft | 374 kts | 266° |
| 2026-04-23 10:15 | 25.28344 | 54.86156 | 15969 ft | 378 kts | 266° |
| 2026-04-23 10:15 | 25.28268 | 54.83268 | 16893 ft | 382 kts | 266° |
| 2026-04-23 10:15 | 25.28183 | 54.80319 | 17836 ft | 386 kts | 266° |
| 2026-04-23 10:16 | 25.28094 | 54.77340 | 18670 ft | 390 kts | 266° |
| 2026-04-23 10:16 | 25.28084 | 54.74332 | 19484 ft | 393 kts | 273° |
| 2026-04-23 10:16 | 25.28689 | 54.71375 | 20135 ft | 400 kts | 284° |
| 2026-04-23 10:16 | 25.29512 | 54.68407 | 20821 ft | 406 kts | 284° |
| 2026-04-23 10:17 | 25.30314 | 54.65407 | 21657 ft | 408 kts | 284° |
| 2026-04-23 10:17 | 25.31096 | 54.62384 | 22517 ft | 410 kts | 283° |
| 2026-04-23 10:17 | 25.31866 | 54.59335 | 23277 ft | 414 kts | 283° |
| 2026-04-23 10:17 | 25.32641 | 54.56241 | 23896 ft | 419 kts | 283° |
| 2026-04-23 10:18 | 25.33422 | 54.53124 | 24507 ft | 422 kts | 283° |
| 2026-04-23 10:18 | 25.34239 | 54.50021 | 25150 ft | 425 kts | 284° |
| 2026-04-23 10:18 | 25.35097 | 54.46878 | 25757 ft | 429 kts | 285° |
| 2026-04-23 10:18 | 25.35969 | 54.43705 | 26347 ft | 433 kts | 285° |
| 2026-04-23 10:19 | 25.36844 | 54.40510 | 26951 ft | 436 kts | 285° |
| 2026-04-23 10:19 | 25.37723 | 54.37278 | 27544 ft | 440 kts | 285° |
| 2026-04-23 10:19 | 25.38602 | 54.34028 | 28108 ft | 443 kts | 285° |
| 2026-04-23 10:19 | 25.39486 | 54.30753 | 28681 ft | 446 kts | 285° |
| 2026-04-23 10:20 | 25.40376 | 54.27444 | 29199 ft | 450 kts | 284° |
| 2026-04-23 10:20 | 25.41228 | 54.24090 | 29726 ft | 453 kts | 284° |
| 2026-04-23 10:20 | 25.42039 | 54.20770 | 29835 ft | 454 kts | 284° |
| 2026-04-23 10:20 | 25.42856 | 54.17398 | 29895 ft | 455 kts | 284° |
| 2026-04-23 10:21 | 25.43685 | 54.14009 | 30277 ft | 458 kts | 283° |
| 2026-04-23 10:21 | 25.44528 | 54.10590 | 30656 ft | 461 kts | 284° |
| 2026-04-23 10:21 | 25.45366 | 54.07176 | 31136 ft | 460 kts | 284° |
| 2026-04-23 10:21 | 25.46197 | 54.03773 | 31780 ft | 455 kts | 284° |
| 2026-04-23 10:22 | 25.47011 | 54.00429 | 32515 ft | 448 kts | 284° |
| 2026-04-23 10:22 | 25.47816 | 53.97117 | 33298 ft | 440 kts | 284° |
| 2026-04-23 10:22 | 25.48604 | 53.93873 | 33951 ft | 435 kts | 284° |
| 2026-04-23 10:22 | 25.49386 | 53.90648 | 34429 ft | 432 kts | 284° |
| 2026-04-23 10:23 | 25.50160 | 53.87454 | 34932 ft | 428 kts | 284° |
| 2026-04-23 10:23 | 25.50932 | 53.84270 | 35460 ft | 424 kts | 284° |
| 2026-04-23 10:23 | 25.51692 | 53.81131 | 35987 ft | 420 kts | 284° |
| 2026-04-23 10:23 | 25.52442 | 53.78030 | 36450 ft | 416 kts | 284° |
| 2026-04-23 10:24 | 25.53188 | 53.74940 | 36834 ft | 415 kts | 284° |
| 2026-04-23 10:24 | 25.53920 | 53.71876 | 36824 ft | 420 kts | 284° |
| 2026-04-23 10:24 | 25.55401 | 53.65615 | 36922 ft | 419 kts | 284° |
| 2026-04-23 10:25 | 25.56138 | 53.62495 | 37261 ft | 417 kts | 284° |
| 2026-04-23 10:25 | 25.56868 | 53.59402 | 37769 ft | 412 kts | 284° |
| 2026-04-23 10:25 | 25.58323 | 53.53232 | 37853 ft | 414 kts | 284° |
| 2026-04-23 10:26 | 25.59523 | 53.48137 | 37846 ft | 408 kts | 284° |
| 2026-04-23 10:26 | 25.60951 | 53.42067 | 37854 ft | 405 kts | 284° |
| 2026-04-23 10:27 | 25.62376 | 53.36026 | 37856 ft | 405 kts | 284° |
| 2026-04-23 10:27 | 25.63804 | 53.29990 | 37858 ft | 405 kts | 284° |
| 2026-04-23 10:28 | 25.65233 | 53.23938 | 37850 ft | 406 kts | 284° |
| 2026-04-23 10:28 | 25.66651 | 53.17913 | 37877 ft | 407 kts | 284° |
| 2026-04-23 10:29 | 25.68083 | 53.11820 | 37862 ft | 409 kts | 284° |
| 2026-04-23 10:29 | 25.69515 | 53.05712 | 37856 ft | 409 kts | 284° |
| 2026-04-23 10:30 | 25.71399 | 52.99733 | 37858 ft | 411 kts | 291° |
| 2026-04-23 10:30 | 25.73988 | 52.94056 | 37866 ft | 413 kts | 295° |
| 2026-04-23 10:31 | 25.76676 | 52.88428 | 37863 ft | 413 kts | 295° |
| 2026-04-23 10:31 | 25.79337 | 52.82820 | 37864 ft | 413 kts | 295° |
| 2026-04-23 10:32 | 25.82001 | 52.77177 | 37865 ft | 412 kts | 295° |
| 2026-04-23 10:32 | 25.84657 | 52.71541 | 37858 ft | 412 kts | 294° |
| 2026-04-23 10:33 | 25.87306 | 52.65910 | 37868 ft | 411 kts | 294° |
| 2026-04-23 10:33 | 25.89949 | 52.60285 | 37866 ft | 410 kts | 294° |
| 2026-04-23 10:34 | 25.92468 | 52.54663 | 37869 ft | 409 kts | 293° |
| 2026-04-23 10:34 | 25.94969 | 52.48979 | 37889 ft | 409 kts | 293° |
| 2026-04-23 10:35 | 25.97480 | 52.43308 | 37881 ft | 409 kts | 293° |
| 2026-04-23 10:35 | 25.99999 | 52.37630 | 37875 ft | 409 kts | 293° |
| 2026-04-23 10:36 | 26.02527 | 52.31955 | 37878 ft | 409 kts | 293° |
| 2026-04-23 10:36 | 26.05036 | 52.26316 | 37870 ft | 410 kts | 293° |
| 2026-04-23 10:37 | 26.07564 | 52.20625 | 37881 ft | 410 kts | 293° |
| 2026-04-23 10:37 | 26.10087 | 52.14935 | 37893 ft | 411 kts | 293° |
| 2026-04-23 10:38 | 26.12616 | 52.09222 | 37891 ft | 412 kts | 293° |
| 2026-04-23 10:38 | 26.15149 | 52.03493 | 37884 ft | 412 kts | 293° |
| 2026-04-23 10:39 | 26.17674 | 51.97793 | 37889 ft | 413 kts | 294° |
| 2026-04-23 10:39 | 26.20265 | 51.92066 | 37889 ft | 413 kts | 293° |
| 2026-04-23 10:40 | 26.22807 | 51.86322 | 37894 ft | 413 kts | 293° |
| 2026-04-23 10:40 | 26.25352 | 51.80561 | 37885 ft | 414 kts | 293° |
| 2026-04-23 10:41 | 26.27916 | 51.74811 | 37903 ft | 415 kts | 293° |
| 2026-04-23 10:41 | 26.30476 | 51.69077 | 37896 ft | 416 kts | 293° |
| 2026-04-23 10:42 | 26.33048 | 51.63299 | 37898 ft | 416 kts | 293° |
| 2026-04-23 10:42 | 26.35622 | 51.57510 | 37898 ft | 417 kts | 293° |
| 2026-04-23 10:43 | 26.38113 | 51.51672 | 37911 ft | 415 kts | 289° |
| 2026-04-23 10:43 | 26.40039 | 51.45615 | 37901 ft | 415 kts | 287° |
| 2026-04-23 10:44 | 26.41962 | 51.39535 | 37896 ft | 416 kts | 287° |
| 2026-04-23 10:44 | 26.43915 | 51.33464 | 37907 ft | 416 kts | 287° |
| 2026-04-23 10:45 | 26.45916 | 51.27365 | 37903 ft | 419 kts | 287° |
| 2026-04-23 10:45 | 26.47877 | 51.21264 | 37904 ft | 421 kts | 287° |
| 2026-04-23 10:46 | 26.49838 | 51.15075 | 37932 ft | 423 kts | 287° |
| 2026-04-23 10:46 | 26.51798 | 51.08889 | 37907 ft | 422 kts | 287° |
| 2026-04-23 10:47 | 26.53752 | 51.02723 | 37898 ft | 420 kts | 287° |
| 2026-04-23 10:47 | 26.55681 | 50.96628 | 37911 ft | 418 kts | 287° |
| 2026-04-23 10:48 | 26.57608 | 50.90524 | 37909 ft | 416 kts | 286° |
| 2026-04-23 10:48 | 26.59484 | 50.84426 | 37920 ft | 415 kts | 286° |
| 2026-04-23 10:49 | 26.61353 | 50.78307 | 37949 ft | 416 kts | 286° |
| 2026-04-23 10:49 | 26.63230 | 50.72173 | 37921 ft | 417 kts | 285° |
| 2026-04-23 10:50 | 26.65097 | 50.66030 | 37931 ft | 417 kts | 285° |
| 2026-04-23 10:50 | 26.66925 | 50.59877 | 37942 ft | 417 kts | 285° |
| 2026-04-23 10:51 | 26.68755 | 50.53704 | 37953 ft | 419 kts | 285° |
| 2026-04-23 10:51 | 26.70594 | 50.47493 | 37942 ft | 420 kts | 284° |
| 2026-04-23 10:52 | 26.72215 | 50.41245 | 37957 ft | 418 kts | 283° |
| 2026-04-23 10:52 | 26.73796 | 50.35034 | 37956 ft | 417 kts | 283° |
| 2026-04-23 10:53 | 26.74630 | 50.28747 | 37976 ft | 407 kts | 264° |
| 2026-04-23 10:53 | 26.73375 | 50.22587 | 37954 ft | 409 kts | 248° |
| 2026-04-23 10:54 | 26.70515 | 50.17069 | 37965 ft | 411 kts | 242° |
| 2026-04-23 10:54 | 26.67545 | 50.11583 | 37965 ft | 413 kts | 243° |
| 2026-04-23 10:55 | 26.64619 | 50.06072 | 37951 ft | 416 kts | 243° |
| 2026-04-23 10:55 | 26.61672 | 50.00483 | 37952 ft | 417 kts | 243° |
| 2026-04-23 10:56 | 26.58713 | 49.94879 | 37945 ft | 419 kts | 243° |
| 2026-04-23 10:56 | 26.55776 | 49.89281 | 37942 ft | 420 kts | 243° |
| 2026-04-23 10:57 | 26.52825 | 49.83656 | 37924 ft | 420 kts | 243° |
| 2026-04-23 10:57 | 26.50023 | 49.77952 | 37941 ft | 417 kts | 248° |
| 2026-04-23 10:58 | 26.48002 | 49.71907 | 37943 ft | 415 kts | 254° |
| 2026-04-23 10:58 | 26.46224 | 49.65779 | 37947 ft | 415 kts | 254° |
| 2026-04-23 10:59 | 26.44428 | 49.59643 | 37964 ft | 416 kts | 254° |
| 2026-04-23 10:59 | 26.42612 | 49.53480 | 37948 ft | 418 kts | 254° |
| 2026-04-23 11:00 | 26.40809 | 49.47377 | 37949 ft | 416 kts | 254° |
| 2026-04-23 11:00 | 26.38996 | 49.41259 | 38008 ft | 415 kts | 254° |
| 2026-04-23 11:01 | 26.37174 | 49.35105 | 37985 ft | 418 kts | 253° |
| 2026-04-23 11:01 | 26.35355 | 49.28981 | 37969 ft | 419 kts | 254° |
| 2026-04-23 11:02 | 26.33541 | 49.22870 | 37934 ft | 409 kts | 254° |
| 2026-04-23 11:02 | 26.31754 | 49.16884 | 37977 ft | 406 kts | 254° |
| 2026-04-23 11:03 | 26.30121 | 49.10875 | 37981 ft | 405 kts | 259° |
| 2026-04-23 11:03 | 26.29258 | 49.04669 | 37996 ft | 406 kts | 265° |
| 2026-04-23 11:04 | 26.28798 | 48.98372 | 37991 ft | 408 kts | 265° |
| 2026-04-23 11:04 | 26.28334 | 48.92064 | 37979 ft | 409 kts | 265° |
| 2026-04-23 11:05 | 26.27856 | 48.85746 | 37994 ft | 408 kts | 265° |
| 2026-04-23 11:05 | 26.27373 | 48.79472 | 37998 ft | 408 kts | 265° |
| 2026-04-23 11:06 | 26.26641 | 48.70029 | 38004 ft | 407 kts | 265° |
| 2026-04-23 11:07 | 26.26151 | 48.63746 | 38013 ft | 407 kts | 265° |
| 2026-04-23 11:07 | 26.25659 | 48.57476 | 38007 ft | 406 kts | 265° |
| 2026-04-23 11:08 | 26.24676 | 48.51283 | 38017 ft | 406 kts | 257° |
| 2026-04-23 11:08 | 26.22986 | 48.45310 | 38016 ft | 407 kts | 250° |
| 2026-04-23 11:08 | 26.21832 | 48.42389 | 37525 ft | 415 kts | 248° |
| 2026-04-23 11:09 | 26.20603 | 48.39477 | 37060 ft | 413 kts | 248° |
| 2026-04-23 11:09 | 26.19372 | 48.36603 | 36538 ft | 408 kts | 248° |
| 2026-04-23 11:09 | 26.18164 | 48.33768 | 36054 ft | 404 kts | 248° |
| 2026-04-23 11:09 | 26.16975 | 48.30952 | 35573 ft | 400 kts | 248° |
| 2026-04-23 11:10 | 26.15807 | 48.28164 | 35080 ft | 397 kts | 248° |
| 2026-04-23 11:10 | 26.14657 | 48.25413 | 34593 ft | 394 kts | 248° |
| 2026-04-23 11:10 | 26.13502 | 48.22656 | 34108 ft | 392 kts | 248° |
| 2026-04-23 11:10 | 26.12314 | 48.19889 | 33555 ft | 391 kts | 245° |
| 2026-04-23 11:11 | 26.11427 | 48.18152 | 33214 ft | 390 kts | 242° |
| 2026-04-23 11:11 | 26.09417 | 48.14825 | 32568 ft | 389 kts | 236° |
| 2026-04-23 11:11 | 26.07705 | 48.12481 | 32130 ft | 388 kts | 234° |
| 2026-04-23 11:11 | 26.05984 | 48.10174 | 31625 ft | 387 kts | 234° |
| 2026-04-23 11:12 | 26.04274 | 48.07886 | 31169 ft | 384 kts | 234° |
| 2026-04-23 11:12 | 26.03139 | 48.06366 | 30856 ft | 383 kts | 234° |
| 2026-04-23 11:12 | 26.01446 | 48.04093 | 30402 ft | 381 kts | 234° |
| 2026-04-23 11:12 | 25.99762 | 48.01828 | 29920 ft | 379 kts | 233° |
| 2026-04-23 11:13 | 25.98087 | 47.99573 | 29387 ft | 377 kts | 234° |
| 2026-04-23 11:13 | 25.96425 | 47.97335 | 28905 ft | 374 kts | 234° |
| 2026-04-23 11:13 | 25.94773 | 47.95110 | 28425 ft | 371 kts | 234° |
| 2026-04-23 11:13 | 25.93155 | 47.92931 | 27954 ft | 369 kts | 234° |
| 2026-04-23 11:14 | 25.91527 | 47.90740 | 27500 ft | 366 kts | 234° |
| 2026-04-23 11:14 | 25.89908 | 47.88562 | 27051 ft | 363 kts | 234° |
| 2026-04-23 11:14 | 25.88302 | 47.86403 | 26600 ft | 361 kts | 234° |
| 2026-04-23 11:14 | 25.86708 | 47.84261 | 26151 ft | 359 kts | 234° |
| 2026-04-23 11:15 | 25.85123 | 47.82133 | 25719 ft | 356 kts | 233° |
| 2026-04-23 11:15 | 25.83538 | 47.80019 | 25275 ft | 355 kts | 233° |
| 2026-04-23 11:15 | 25.81978 | 47.77946 | 24834 ft | 354 kts | 233° |
| 2026-04-23 11:15 | 25.80380 | 47.75824 | 24369 ft | 353 kts | 234° |
| 2026-04-23 11:16 | 25.78831 | 47.73766 | 23938 ft | 352 kts | 234° |
| 2026-04-23 11:16 | 25.77261 | 47.71679 | 23476 ft | 351 kts | 234° |
| 2026-04-23 11:16 | 25.75697 | 47.69602 | 22972 ft | 350 kts | 234° |
| 2026-04-23 11:16 | 25.74141 | 47.67535 | 22519 ft | 347 kts | 234° |
| 2026-04-23 11:17 | 25.72591 | 47.65478 | 22076 ft | 345 kts | 234° |
| 2026-04-23 11:17 | 25.71059 | 47.63446 | 21637 ft | 342 kts | 233° |
| 2026-04-23 11:17 | 25.69540 | 47.61422 | 21201 ft | 340 kts | 234° |
| 2026-04-23 11:17 | 25.68043 | 47.59408 | 20776 ft | 338 kts | 234° |
| 2026-04-23 11:18 | 25.66558 | 47.57403 | 20360 ft | 335 kts | 234° |
| 2026-04-23 11:18 | 25.65080 | 47.55413 | 19933 ft | 333 kts | 234° |
| 2026-04-23 11:18 | 25.63578 | 47.53466 | 19547 ft | 332 kts | 230° |
| 2026-04-23 11:18 | 25.61908 | 47.51707 | 19338 ft | 329 kts | 227° |
| 2026-04-23 11:19 | 25.60243 | 47.50007 | 19200 ft | 322 kts | 227° |
| 2026-04-23 11:19 | 25.58605 | 47.48332 | 18995 ft | 318 kts | 227° |
| 2026-04-23 11:19 | 25.57005 | 47.46689 | 18714 ft | 317 kts | 227° |
| 2026-04-23 11:19 | 25.55391 | 47.45028 | 18429 ft | 316 kts | 227° |
| 2026-04-23 11:20 | 25.53781 | 47.43369 | 18123 ft | 315 kts | 227° |
| 2026-04-23 11:20 | 25.52180 | 47.41718 | 17823 ft | 313 kts | 227° |
| 2026-04-23 11:20 | 25.50588 | 47.40076 | 17542 ft | 311 kts | 227° |
| 2026-04-23 11:20 | 25.49012 | 47.38451 | 17244 ft | 309 kts | 227° |
| 2026-04-23 11:21 | 25.47439 | 47.36828 | 16924 ft | 309 kts | 227° |
| 2026-04-23 11:21 | 25.45870 | 47.35210 | 16629 ft | 308 kts | 226° |
| 2026-04-23 11:21 | 25.44309 | 47.33602 | 16346 ft | 306 kts | 226° |
| 2026-04-23 11:21 | 25.42751 | 47.31996 | 16079 ft | 305 kts | 226° |
| 2026-04-23 11:22 | 25.41175 | 47.30434 | 15778 ft | 305 kts | 224° |
| 2026-04-23 11:22 | 25.39536 | 47.28950 | 15511 ft | 304 kts | 223° |
| 2026-04-23 11:22 | 25.37883 | 47.27488 | 15260 ft | 303 kts | 222° |
| 2026-04-23 11:22 | 25.36244 | 47.26040 | 14987 ft | 301 kts | 222° |
| 2026-04-23 11:23 | 25.34609 | 47.24591 | 14731 ft | 300 kts | 222° |
| 2026-04-23 11:23 | 25.32993 | 47.23154 | 14483 ft | 298 kts | 223° |
| 2026-04-23 11:23 | 25.31435 | 47.21651 | 14236 ft | 295 kts | 226° |
| 2026-04-23 11:23 | 25.29972 | 47.20099 | 13806 ft | 296 kts | 227° |
| 2026-04-23 11:24 | 25.28499 | 47.18504 | 13339 ft | 297 kts | 227° |
| 2026-04-23 11:24 | 25.27021 | 47.16904 | 12859 ft | 298 kts | 227° |
| 2026-04-23 11:24 | 25.25536 | 47.15305 | 12383 ft | 298 kts | 226° |
| 2026-04-23 11:24 | 25.24081 | 47.13747 | 11893 ft | 282 kts | 226° |
| 2026-04-23 11:25 | 25.22661 | 47.12344 | 11389 ft | 267 kts | 217° |
| 2026-04-23 11:25 | 25.21069 | 47.11369 | 10918 ft | 255 kts | 211° |
| 2026-04-23 11:25 | 25.19523 | 47.10499 | 10465 ft | 243 kts | 211° |
| 2026-04-23 11:25 | 25.18044 | 47.09658 | 10017 ft | 234 kts | 212° |
| 2026-04-23 11:26 | 25.16627 | 47.08846 | 9533 ft | 226 kts | 211° |
| 2026-04-23 11:26 | 25.15272 | 47.08065 | 9037 ft | 219 kts | 211° |
| 2026-04-23 11:26 | 25.13945 | 47.07297 | 8569 ft | 212 kts | 210° |
| 2026-04-23 11:26 | 25.12640 | 47.06540 | 8113 ft | 214 kts | 209° |
| 2026-04-23 11:27 | 25.11296 | 47.05758 | 7678 ft | 223 kts | 208° |
| 2026-04-23 11:27 | 25.09906 | 47.04949 | 7238 ft | 228 kts | 207° |
| 2026-04-23 11:27 | 25.08488 | 47.04121 | 6823 ft | 234 kts | 206° |
| 2026-04-23 11:27 | 25.07023 | 47.03270 | 6386 ft | 240 kts | 205° |
| 2026-04-23 11:28 | 25.05540 | 47.02410 | 6015 ft | 243 kts | 205° |
| 2026-04-23 11:28 | 25.04036 | 47.01535 | 5625 ft | 246 kts | 204° |
| 2026-04-23 11:28 | 25.02511 | 47.00648 | 5253 ft | 249 kts | 204° |
| 2026-04-23 11:28 | 25.00992 | 46.99764 | 4873 ft | 246 kts | 204° |
| 2026-04-23 11:29 | 24.99502 | 46.98894 | 4424 ft | 237 kts | 204° |
| 2026-04-23 11:29 | 24.98070 | 46.98056 | 4006 ft | 228 kts | 203° |
| 2026-04-23 11:29 | 24.96680 | 46.97250 | 3580 ft | 223 kts | 204° |
| 2026-04-23 11:29 | 24.95292 | 46.96449 | 3256 ft | 228 kts | 206° |
| 2026-04-23 11:30 | 24.93876 | 46.95625 | 2950 ft | 228 kts | 205° |
| 2026-04-23 11:30 | 24.92506 | 46.94828 | 2963 ft | 222 kts | 205° |
| 2026-04-23 11:30 | 24.91109 | 46.94019 | 2959 ft | 229 kts | 204° |
| 2026-04-23 11:30 | 24.89706 | 46.93203 | 2933 ft | 225 kts | 205° |
| 2026-04-23 11:31 | 24.88334 | 46.92407 | 2939 ft | 223 kts | 204° |
| 2026-04-23 11:31 | 24.86945 | 46.91612 | 2965 ft | 227 kts | 200° |
| 2026-04-23 11:31 | 24.85495 | 46.90951 | 2926 ft | 227 kts | 198° |
| 2026-04-23 11:31 | 24.84027 | 46.90336 | 2953 ft | 224 kts | 198° |
| 2026-04-23 11:32 | 24.82582 | 46.89727 | 2933 ft | 220 kts | 200° |
| 2026-04-23 11:32 | 24.81135 | 46.89109 | 2963 ft | 227 kts | 197° |
| 2026-04-23 11:32 | 24.79662 | 46.88444 | 2929 ft | 229 kts | 207° |
| 2026-04-23 11:32 | 24.78600 | 46.87198 | 2952 ft | 228 kts | 242° |
| 2026-04-23 11:33 | 24.77918 | 46.85615 | 2946 ft | 230 kts | 243° |
| 2026-04-23 11:33 | 24.77330 | 46.84032 | 2938 ft | 221 kts | 263° |
| 2026-04-23 11:33 | 24.77522 | 46.82395 | 2963 ft | 224 kts | 301° |
| 2026-04-23 11:33 | 24.78358 | 46.80961 | 2981 ft | 226 kts | 309° |
| 2026-04-23 11:34 | 24.79220 | 46.79531 | 2970 ft | 220 kts | 307° |
| 2026-04-23 11:34 | 24.80112 | 46.78217 | 2951 ft | 205 kts | 327° |
| 2026-04-23 11:34 | 24.81304 | 46.77432 | 2978 ft | 201 kts | 338° |
| 2026-04-23 11:34 | 24.82553 | 46.76675 | 2970 ft | 208 kts | 336° |
| 2026-04-23 11:35 | 24.83805 | 46.75889 | 2975 ft | 201 kts | 335° |
| 2026-04-23 11:35 | 24.84960 | 46.75155 | 2965 ft | 180 kts | 336° |
| 2026-04-23 11:35 | 24.85970 | 46.74513 | 2931 ft | 157 kts | 334° |
| 2026-04-23 11:35 | 24.86883 | 46.73936 | 2965 ft | 153 kts | 337° |
| 2026-04-23 11:36 | 24.87830 | 46.73342 | 2973 ft | 156 kts | 337° |
| 2026-04-23 11:36 | 24.88774 | 46.72748 | 3012 ft | 157 kts | 337° |
| 2026-04-23 11:36 | 24.89732 | 46.72147 | 2981 ft | 159 kts | 334° |
| 2026-04-23 11:36 | 24.90685 | 46.71550 | 2934 ft | 161 kts | 336° |
| 2026-04-23 11:37 | 24.91654 | 46.70940 | 2655 ft | 157 kts | 335° |
| 2026-04-23 11:37 | 24.92573 | 46.70354 | 2413 ft | 150 kts | 334° |
| 2026-04-23 11:37 | 24.93462 | 46.69785 | 2187 ft | 148 kts | 334° |
| 2026-04-23 11:37 | 24.94345 | 46.69218 | 2090 ft | 142 kts | 335° |
| 2026-04-23 11:38 | 24.95014 | 46.68803 | 2077 ft | 43 kts | 329° |
| 2026-04-23 11:38 | 24.95155 | 46.68716 | 2078 ft | 26 kts | 334° |
| 2026-04-23 11:38 | 24.95344 | 46.68670 | 2077 ft | 23 kts | 358° |
| 2026-04-23 11:38 | 24.95456 | 46.68701 | 2079 ft | 10 kts | 31° |
| 2026-04-23 11:39 | 24.95502 | 46.68753 | 2079 ft | 10 kts | 56° |
| 2026-04-23 11:39 | 24.95511 | 46.68822 | 2081 ft | 10 kts | 117° |
| 2026-04-23 11:39 | 24.95458 | 46.68867 | 2080 ft | 10 kts | 150° |
| 2026-04-23 11:39 | 24.95432 | 46.68883 | 2079 ft | 3 kts | 150° |
| 2026-04-23 11:40 | 24.95411 | 46.68896 | 2080 ft | 4 kts | 150° |
| 2026-04-23 11:40 | 24.95388 | 46.68911 | 2077 ft | 4 kts | 150° |
| 2026-04-23 11:40 | 24.95363 | 46.68927 | 2079 ft | 4 kts | 150° |
| 2026-04-23 11:40 | 24.95335 | 46.68945 | 2078 ft | 5 kts | 150° |
| 2026-04-23 11:41 | 24.95305 | 46.68963 | 2079 ft | 5 kts | 150° |
| 2026-04-23 11:41 | 24.95275 | 46.68983 | 2079 ft | 5 kts | 149° |
| 2026-04-23 11:41 | 24.95187 | 46.69040 | 2079 ft | 28 kts | 149° |
| 2026-04-23 11:41 | 24.95044 | 46.69130 | 2077 ft | 18 kts | 150° |
| 2026-04-23 11:42 | 24.94937 | 46.69197 | 2080 ft | 18 kts | 150° |
| 2026-04-23 11:42 | 24.94847 | 46.69254 | 2079 ft | 15 kts | 150° |
| 2026-04-23 11:42 | 24.94759 | 46.69310 | 2078 ft | 15 kts | 150° |
| 2026-04-23 11:42 | 24.94671 | 46.69366 | 2079 ft | 15 kts | 150° |
| 2026-04-23 11:43 | 24.94583 | 46.69421 | 2079 ft | 15 kts | 150° |
| 2026-04-23 11:43 | 24.94521 | 46.69500 | 2079 ft | 15 kts | 89° |
| 2026-04-23 11:43 | 24.94560 | 46.69603 | 2078 ft | 15 kts | 59° |
| 2026-04-23 11:43 | 24.94612 | 46.69700 | 2079 ft | 15 kts | 59° |
| 2026-04-23 11:44 | 24.94663 | 46.69796 | 2079 ft | 15 kts | 59° |
| 2026-04-23 11:44 | 24.94716 | 46.69894 | 2078 ft | 15 kts | 59° |
| 2026-04-23 11:44 | 24.94768 | 46.69990 | 2079 ft | 15 kts | 59° |
| 2026-04-23 11:44 | 24.94821 | 46.70087 | 2078 ft | 15 kts | 59° |
| 2026-04-23 11:45 | 24.94874 | 46.70183 | 2079 ft | 15 kts | 59° |
| 2026-04-23 11:45 | 24.94924 | 46.70281 | 2080 ft | 15 kts | 62° |
| 2026-04-23 11:45 | 24.94972 | 46.70381 | 2079 ft | 15 kts | 62° |
| 2026-04-23 11:45 | 24.95022 | 46.70479 | 2080 ft | 15 kts | 60° |
| 2026-04-23 11:46 | 24.95072 | 46.70577 | 2079 ft | 15 kts | 60° |
| 2026-04-23 11:46 | 24.95123 | 46.70675 | 2079 ft | 15 kts | 60° |
| 2026-04-23 11:46 | 24.95177 | 46.70770 | 2077 ft | 15 kts | 58° |
| 2026-04-23 11:46 | 24.95231 | 46.70866 | 2079 ft | 15 kts | 60° |
| 2026-04-23 11:47 | 24.95282 | 46.70963 | 2077 ft | 15 kts | 60° |
| 2026-04-23 11:47 | 24.95297 | 46.70992 | 2079 ft | 0 kts | 60° |
| 2026-04-23 11:47 | 24.95298 | 46.70993 | 2079 ft | 0 kts | 60° |
| 2026-04-23 11:47 | 24.95313 | 46.71022 | 2079 ft | 13 kts | 60° |
| 2026-04-23 11:48 | 24.95367 | 46.71120 | 2078 ft | 15 kts | 48° |
| 2026-04-23 11:48 | 24.95464 | 46.71120 | 2080 ft | 15 kts | 335° |
| 2026-04-23 11:48 | 24.95557 | 46.71064 | 2079 ft | 15 kts | 330° |
| 2026-04-23 11:48 | 24.95648 | 46.71006 | 2079 ft | 15 kts | 330° |
| 2026-04-23 11:49 | 24.95738 | 46.70950 | 2080 ft | 15 kts | 330° |
| 2026-04-23 11:49 | 24.95829 | 46.70893 | 2080 ft | 15 kts | 330° |
| 2026-04-23 11:49 | 24.95882 | 46.70808 | 2078 ft | 14 kts | 261° |
| 2026-04-23 11:49 | 24.95817 | 46.70740 | 2080 ft | 14 kts | 181° |
| 2026-04-23 11:50 | 24.95726 | 46.70780 | 2079 ft | 14 kts | 152° |
| 2026-04-23 11:50 | 24.95641 | 46.70833 | 2078 ft | 14 kts | 149° |
| 2026-04-23 11:50 | 24.95576 | 46.70864 | 2080 ft | 9 kts | 185° |
| 2026-04-23 11:50 | 24.95537 | 46.70833 | 2077 ft | 6 kts | 230° |
| 2026-04-23 11:51 | 24.95520 | 46.70805 | 2080 ft | 1 kts | 237° |
| 2026-04-23 11:51 | 24.95518 | 46.70802 | 2081 ft | 0 kts | 237° |
| 2026-04-23 11:52 | 24.95518 | 46.70803 | 2081 ft | 0 kts | 237° |
| 2026-04-23 11:53 | 24.95521 | 46.70807 | 2080 ft | 0 kts | 261° |
| 2026-04-23 11:53 | 24.95519 | 46.70799 | 2079 ft | 1 kts | 261° |
| 2026-04-23 11:54 | 24.95518 | 46.70789 | 2080 ft | 2 kts | 265° |
| 2026-04-23 11:54 | 24.95517 | 46.70776 | 2081 ft | 2 kts | 265° |
| 2026-04-23 11:54 | 24.95521 | 46.70759 | 2081 ft | 2 kts | 286° |
| 2026-04-23 11:54 | 24.95526 | 46.70744 | 2078 ft | 2 kts | 291° |
| 2026-04-23 11:55 | 24.95532 | 46.70729 | 2079 ft | 2 kts | 291° |
| 2026-04-23 11:55 | 24.95535 | 46.70714 | 2079 ft | 2 kts | 284° |
| 2026-04-23 11:55 | 24.95539 | 46.70701 | 2078 ft | 2 kts | 284° |
| 2026-04-23 11:55 | 24.95542 | 46.70687 | 2079 ft | 2 kts | 284° |
| 2026-04-23 11:56 | 24.95544 | 46.70676 | 2080 ft | 0 kts | 285° |